Airport View

Enter AWOS ICAO identifier for current METAR.

ex. KFNL

KCGE 262205Z AUTO 11009KT 4SM BR OVC003 10/10 A2979 RMK A01

26 Feb 2020 22:25

Frequency: 120.675

Phone: 410-228-7559

Other Area AWOS: KESN - KNHK - KSBY - K2W6

TAF KNHK 2615/2715 06006KT 3200 BR OVC004 QNH2981INS TEMPO 2615/2619 0400 FG VV002 BECMG 2618/2619 09007KT 4800 BR OVC006 QNH2961INS TEMPO 2619/2623 3200 BR OVC004 BECMG 2700/2702 14007KT 1600 -SHRA BR VCTS BKN004 OVC015CB QNH2950INS BECMG 2706/2707 26014G22KT 9999 NSW FEW010 FEW040 SCT100 QNH2953INS T12/2620Z T03/2712Z FN20065